createdAt,value
2019-03-17T00:02:12.176Z,5.90
2019-03-17T00:04:40.606Z,6.00
2019-03-17T00:07:09.050Z,6.00
2019-03-17T00:09:37.559Z,6.00
2019-03-17T00:12:06.008Z,6.00
2019-03-17T00:14:34.591Z,6.00
2019-03-17T00:17:03.306Z,6.00
2019-03-17T00:19:31.809Z,5.90
2019-03-17T00:22:00.304Z,6.00
2019-03-17T00:24:28.768Z,6.00
2019-03-17T00:26:57.214Z,6.00
2019-03-17T00:29:25.659Z,6.00
2019-03-17T00:31:54.091Z,6.00
2019-03-17T00:34:22.532Z,5.90
2019-03-17T00:36:51.048Z,6.00
2019-03-17T00:39:19.478Z,6.00
2019-03-17T00:41:47.910Z,6.00
2019-03-17T00:44:16.390Z,6.00
2019-03-17T00:46:44.921Z,6.00
2019-03-17T00:49:13.362Z,6.00
2019-03-17T00:51:41.831Z,6.00
2019-03-17T00:54:10.326Z,6.00
2019-03-17T00:56:38.803Z,6.00
2019-03-17T00:59:07.243Z,6.00
2019-03-17T01:01:35.771Z,6.10
2019-03-17T01:04:04.302Z,6.10
2019-03-17T01:06:32.746Z,6.10
2019-03-17T01:09:01.184Z,6.00
2019-03-17T01:11:29.628Z,6.10
2019-03-17T01:13:58.083Z,6.10
2019-03-17T01:16:26.526Z,6.00
2019-03-17T01:18:54.986Z,6.10
2019-03-17T01:21:23.433Z,6.00
2019-03-17T01:23:51.926Z,6.00
2019-03-17T01:26:20.440Z,6.00
2019-03-17T01:28:48.938Z,6.00
2019-03-17T01:31:17.474Z,6.00
2019-03-17T01:33:46.006Z,6.00
2019-03-17T01:36:14.530Z,6.00
2019-03-17T01:38:42.978Z,6.00
2019-03-17T01:41:11.416Z,6.00
2019-03-17T01:43:39.933Z,6.00
2019-03-17T01:46:08.366Z,6.00
2019-03-17T01:48:36.871Z,6.10
2019-03-17T01:51:05.303Z,6.10
2019-03-17T01:53:33.771Z,6.00
2019-03-17T01:56:02.230Z,6.00
2019-03-17T01:58:30.675Z,6.00
2019-03-17T02:00:59.121Z,6.00
2019-03-17T02:03:27.637Z,6.00
2019-03-17T02:05:56.087Z,6.00
2019-03-17T02:08:24.568Z,6.00
2019-03-17T02:10:53.058Z,5.90
2019-03-17T02:13:21.519Z,5.90
2019-03-17T02:15:50.018Z,5.90
2019-03-17T02:18:18.542Z,5.90
2019-03-17T02:20:47.036Z,5.90
2019-03-17T02:23:15.499Z,5.90
2019-03-17T02:25:43.973Z,5.90
2019-03-17T02:28:12.726Z,5.90
2019-03-17T02:30:41.191Z,5.90
2019-03-17T02:33:09.632Z,5.90
2019-03-17T02:35:39.974Z,5.80
2019-03-17T02:38:08.335Z,5.70
2019-03-17T02:40:36.767Z,5.70
2019-03-17T02:43:05.301Z,5.70
2019-03-17T02:45:34.062Z,5.70
2019-03-17T02:48:02.592Z,5.70
2019-03-17T02:50:31.095Z,5.70
2019-03-17T02:52:59.577Z,5.70
2019-03-17T02:55:28.090Z,5.70
2019-03-17T02:57:56.534Z,5.70
2019-03-17T03:00:25.261Z,5.70
2019-03-17T03:02:53.695Z,5.70
2019-03-17T03:05:22.175Z,5.70
2019-03-17T03:07:50.683Z,5.70
2019-03-17T03:10:19.123Z,5.70
2019-03-17T03:12:47.588Z,5.70
2019-03-17T03:15:16.075Z,5.70
2019-03-17T03:17:44.631Z,5.70
2019-03-17T03:20:13.153Z,5.50
2019-03-17T03:22:41.681Z,5.50
2019-03-17T03:25:10.238Z,5.50
2019-03-17T03:27:38.694Z,5.40
2019-03-17T03:30:10.085Z,5.50
2019-03-17T03:32:38.524Z,5.50
2019-03-17T03:35:08.603Z,5.40
2019-03-17T03:37:37.182Z,5.30
2019-03-17T03:40:08.726Z,5.30
2019-03-17T03:42:37.223Z,5.30
2019-03-17T03:45:12.662Z,5.40
2019-03-17T03:47:41.182Z,5.40
2019-03-17T03:50:10.668Z,5.40
2019-03-17T03:52:39.215Z,5.50
2019-03-17T03:55:08.719Z,5.50
2019-03-17T03:57:37.289Z,5.50
2019-03-17T04:02:48.234Z,5.60
2019-03-17T04:05:16.683Z,5.60
2019-03-17T04:07:45.128Z,5.60
2019-03-17T04:10:13.656Z,5.70
2019-03-17T04:12:42.112Z,5.70
2019-03-17T04:15:11.388Z,5.70
2019-03-17T04:17:39.815Z,5.80
2019-03-17T04:20:11.433Z,5.80
2019-03-17T04:22:39.879Z,5.80
2019-03-17T04:25:08.563Z,5.80
2019-03-17T04:27:37.034Z,5.80
2019-03-17T04:30:08.270Z,5.80
2019-03-17T04:32:36.757Z,5.80
2019-03-17T04:35:06.506Z,5.80
2019-03-17T04:37:35.024Z,5.70
2019-03-17T04:40:04.541Z,5.70
2019-03-17T04:42:32.978Z,5.70
2019-03-17T04:45:01.543Z,5.60
2019-03-17T04:47:30.259Z,5.60
2019-03-17T04:49:58.719Z,5.50
2019-03-17T04:52:27.259Z,5.40
2019-03-17T04:54:55.687Z,5.40
2019-03-17T04:57:24.197Z,5.30
2019-03-17T04:59:52.745Z,5.30
2019-03-17T05:02:21.404Z,5.30
2019-03-17T05:04:49.920Z,5.20
2019-03-17T05:07:18.364Z,5.20
2019-03-17T05:09:47.055Z,5.10
2019-03-17T05:12:15.754Z,5.20
2019-03-17T05:14:44.199Z,5.30
2019-03-17T05:17:12.669Z,5.40
2019-03-17T05:19:41.208Z,5.40
2019-03-17T05:22:09.647Z,5.50
2019-03-17T05:24:38.097Z,5.50
2019-03-17T05:27:06.544Z,5.50
2019-03-17T05:29:34.986Z,5.40
2019-03-17T05:32:03.476Z,5.40
2019-03-17T05:34:31.941Z,5.40
2019-03-17T05:37:06.275Z,5.40
2019-03-17T05:39:30.592Z,5.50
2019-03-17T05:41:59.030Z,5.50
2019-03-17T05:44:27.552Z,5.50
2019-03-17T05:46:55.988Z,5.60
2019-03-17T05:49:24.512Z,5.60
2019-03-17T05:51:52.942Z,5.60
2019-03-17T05:54:21.382Z,5.50
2019-03-17T05:56:49.826Z,5.50
2019-03-17T05:59:19.695Z,5.50
2019-03-17T06:01:48.295Z,5.40
2019-03-17T06:04:16.739Z,5.50
2019-03-17T06:06:45.215Z,5.50
2019-03-17T06:09:13.651Z,5.50
2019-03-17T06:11:42.102Z,5.50
2019-03-17T06:14:10.574Z,5.50
2019-03-17T06:16:39.082Z,5.50
2019-03-17T06:19:07.526Z,5.50
2019-03-17T06:21:35.990Z,5.50
2019-03-17T06:24:04.441Z,5.50
2019-03-17T06:26:32.884Z,5.50
2019-03-17T06:29:01.327Z,5.50
2019-03-17T06:31:29.788Z,5.50
2019-03-17T06:33:58.259Z,5.50
2019-03-17T06:36:26.719Z,5.50
2019-03-17T06:38:55.166Z,5.50
2019-03-17T06:41:23.631Z,5.60
2019-03-17T06:43:52.144Z,5.60
2019-03-17T06:46:20.679Z,5.60
2019-03-17T06:48:49.135Z,5.60
2019-03-17T06:51:17.581Z,5.70
2019-03-17T06:53:55.773Z,5.70
2019-03-17T06:56:16.205Z,5.70
2019-03-17T06:58:44.749Z,5.70
2019-03-17T07:01:13.205Z,5.70
2019-03-17T07:03:41.633Z,5.80
2019-03-17T07:06:10.071Z,5.80
2019-03-17T07:08:38.516Z,5.80
2019-03-17T07:11:06.982Z,5.80
2019-03-17T07:13:35.430Z,5.80
2019-03-17T07:16:03.990Z,5.80
2019-03-17T07:18:32.511Z,5.80
2019-03-17T07:21:01.048Z,5.80
2019-03-17T07:23:29.507Z,5.80
2019-03-17T07:25:57.978Z,5.90
2019-03-17T07:28:26.412Z,5.80
2019-03-17T07:30:54.881Z,5.80
2019-03-17T07:33:23.336Z,5.80
2019-03-17T07:35:51.779Z,5.80
2019-03-17T07:38:20.225Z,5.80
2019-03-17T07:40:48.784Z,5.70
2019-03-17T07:43:17.274Z,5.80
2019-03-17T07:45:45.739Z,5.70
2019-03-17T07:48:14.189Z,5.70
2019-03-17T07:50:42.724Z,5.60
2019-03-17T07:53:11.167Z,5.50
2019-03-17T07:55:39.606Z,5.60
2019-03-17T07:58:08.064Z,5.50
2019-03-17T08:00:36.507Z,5.50
2019-03-17T08:03:04.970Z,5.50
2019-03-17T08:05:33.410Z,5.40
2019-03-17T08:08:09.460Z,5.40
2019-03-17T08:10:32.028Z,5.40
2019-03-17T08:13:00.491Z,5.40
2019-03-17T08:15:28.933Z,5.40
2019-03-17T08:17:57.374Z,5.40
2019-03-17T08:20:25.813Z,5.40
2019-03-17T08:22:54.250Z,5.30
2019-03-17T08:25:22.710Z,5.30
2019-03-17T08:27:51.239Z,5.30
2019-03-17T08:30:19.774Z,5.30
2019-03-17T08:32:48.307Z,5.40
2019-03-17T08:35:16.778Z,5.40
2019-03-17T08:37:45.222Z,5.40
2019-03-17T08:40:17.594Z,5.40
2019-03-17T08:42:46.106Z,5.50
2019-03-17T08:45:14.898Z,5.50
2019-03-17T08:47:52.637Z,5.50
2019-03-17T08:50:14.416Z,5.50
2019-03-17T08:52:42.993Z,5.50
2019-03-17T08:55:11.453Z,5.50
2019-03-17T08:57:39.897Z,5.60
2019-03-17T09:00:11.370Z,5.60
2019-03-17T09:02:39.815Z,5.60
2019-03-17T09:05:08.431Z,5.70
2019-03-17T09:07:36.875Z,5.70
2019-03-17T09:10:08.400Z,5.70
2019-03-17T09:12:36.869Z,5.70
2019-03-17T09:15:06.770Z,5.60
2019-03-17T09:17:35.236Z,5.60
2019-03-17T09:20:05.499Z,5.50
2019-03-17T09:22:33.951Z,5.60
2019-03-17T09:25:02.462Z,5.50
2019-03-17T09:27:30.998Z,5.40
2019-03-17T09:29:59.441Z,5.30
2019-03-17T09:32:27.890Z,5.20
2019-03-17T09:34:56.338Z,5.10
2019-03-17T09:37:24.824Z,5.00
2019-03-17T09:39:53.320Z,4.90
2019-03-17T09:42:21.774Z,4.90
2019-03-17T09:44:50.209Z,4.90
2019-03-17T09:47:18.689Z,4.80
2019-03-17T09:49:47.124Z,4.80
2019-03-17T09:52:15.578Z,4.80
2019-03-17T09:54:44.036Z,4.50
2019-03-17T09:57:12.503Z,4.40
2019-03-17T09:59:40.943Z,4.20
2019-03-17T10:02:09.398Z,3.90
2019-03-17T10:04:37.866Z,3.60
2019-03-17T10:07:06.358Z,3.40
2019-03-17T10:09:34.796Z,3.20
2019-03-17T10:12:03.265Z,3.00
2019-03-17T10:14:31.758Z,2.90
2019-03-17T10:17:00.211Z,3.00
2019-03-17T10:19:28.649Z,3.20
2019-03-17T10:21:57.146Z,3.20
2019-03-17T10:24:25.665Z,3.30
2019-03-17T10:26:54.456Z,3.40
2019-03-17T10:29:22.927Z,3.60
2019-03-17T10:31:51.368Z,3.60
2019-03-17T10:34:19.852Z,3.60
2019-03-17T10:36:48.380Z,3.80
2019-03-17T10:39:16.880Z,3.90
2019-03-17T10:41:45.343Z,3.90
2019-03-17T10:44:13.798Z,3.80
2019-03-17T10:46:43.062Z,3.80
2019-03-17T10:49:11.521Z,4.00
2019-03-17T10:51:40.049Z,4.20
2019-03-17T10:54:08.500Z,4.40
2019-03-17T10:56:37.031Z,4.40
2019-03-17T10:59:05.493Z,4.50
2019-03-17T11:01:33.990Z,4.70
2019-03-17T11:04:02.436Z,5.10
2019-03-17T11:06:30.963Z,5.20
2019-03-17T11:08:59.399Z,5.50
2019-03-17T11:11:27.843Z,5.60
2019-03-17T11:13:56.308Z,5.80
2019-03-17T11:16:24.890Z,5.90
2019-03-17T11:18:53.332Z,5.70
2019-03-17T11:21:21.848Z,5.80
2019-03-17T11:23:50.285Z,5.90
2019-03-17T11:26:18.834Z,6.10
2019-03-17T11:28:47.359Z,6.20
2019-03-17T11:31:15.814Z,6.20
2019-03-17T11:33:44.290Z,6.20
2019-03-17T11:36:12.721Z,6.40
2019-03-17T11:38:41.204Z,6.50
2019-03-17T11:41:09.992Z,6.50
2019-03-17T11:43:38.443Z,6.50
2019-03-17T11:46:06.904Z,6.40
2019-03-17T11:48:35.459Z,6.40
2019-03-17T11:51:03.915Z,6.50
2019-03-17T11:53:32.467Z,6.50
2019-03-17T11:56:00.900Z,6.50
2019-03-17T11:58:29.382Z,6.30
2019-03-17T12:00:57.936Z,6.30
2019-03-17T12:03:26.413Z,6.20
2019-03-17T12:05:54.862Z,6.00
2019-03-17T12:08:23.323Z,5.90
2019-03-17T12:10:52.025Z,5.70
2019-03-17T12:13:20.459Z,5.50
2019-03-17T12:15:48.920Z,5.50
2019-03-17T12:18:18.019Z,5.40
2019-03-17T12:20:46.487Z,5.30
2019-03-17T12:23:14.940Z,5.40
2019-03-17T12:25:43.412Z,5.40
2019-03-17T12:28:11.880Z,5.50
2019-03-17T12:30:40.343Z,5.60
2019-03-17T12:33:08.787Z,5.80
2019-03-17T12:35:37.310Z,5.90
2019-03-17T12:38:05.845Z,6.00
2019-03-17T12:40:34.377Z,6.00
2019-03-17T12:43:02.818Z,6.00
2019-03-17T12:45:31.288Z,6.10
2019-03-17T12:47:59.822Z,5.80
2019-03-17T12:50:28.438Z,5.50
2019-03-17T12:52:56.976Z,5.30
2019-03-17T12:55:25.496Z,5.10
2019-03-17T12:57:53.962Z,5.00
2019-03-17T13:00:26.331Z,4.90
2019-03-17T13:02:54.763Z,4.60
2019-03-17T13:05:23.322Z,4.20
2019-03-17T13:07:51.811Z,4.10
2019-03-17T13:10:23.260Z,3.90
2019-03-17T13:12:51.832Z,4.00
2019-03-17T13:15:20.303Z,4.10
2019-03-17T13:17:48.837Z,4.20
2019-03-17T13:20:23.038Z,4.40
2019-03-17T13:22:51.476Z,4.50
2019-03-17T13:25:19.940Z,4.70
2019-03-17T13:27:48.436Z,4.70
2019-03-17T13:30:17.667Z,4.70
2019-03-17T13:32:46.120Z,4.70
2019-03-17T13:35:14.900Z,4.60
2019-03-17T13:37:43.353Z,4.30
2019-03-17T13:40:28.996Z,4.10
2019-03-17T13:42:49.795Z,3.30
2019-03-17T13:45:18.281Z,2.50
2019-03-17T13:47:46.802Z,1.90
2019-03-17T13:50:19.216Z,1.70
2019-03-17T13:52:47.662Z,1.60
2019-03-17T13:55:16.175Z,1.60
2019-03-17T13:57:57.067Z,1.90
2019-03-17T14:00:25.572Z,2.70
2019-03-17T14:02:54.029Z,3.00
2019-03-17T14:05:22.594Z,3.00
2019-03-17T14:07:51.070Z,3.00
2019-03-17T14:10:19.704Z,2.90
2019-03-17T14:12:48.226Z,3.00
2019-03-17T14:15:16.755Z,3.00
2019-03-17T14:17:45.212Z,3.20
2019-03-17T14:20:21.218Z,3.30
2019-03-17T14:22:49.849Z,3.60
2019-03-17T14:25:23.600Z,3.90
2019-03-17T14:27:52.206Z,4.00
2019-03-17T14:30:20.722Z,4.30
2019-03-17T14:32:49.172Z,5.20
2019-03-17T14:35:17.670Z,6.20
2019-03-17T14:37:46.196Z,6.70
2019-03-17T14:40:16.655Z,7.40
2019-03-17T14:42:49.741Z,7.20
2019-03-17T14:45:18.518Z,7.00
2019-03-17T14:47:47.027Z,6.80
2019-03-17T14:50:20.614Z,6.90
2019-03-17T14:52:49.086Z,6.70
2019-03-17T14:55:17.732Z,6.40
2019-03-17T14:57:46.256Z,6.80
2019-03-17T15:00:20.410Z,7.00
2019-03-17T15:02:48.959Z,7.20
2019-03-17T15:05:17.756Z,7.80
2019-03-17T15:07:46.595Z,8.20
2019-03-17T15:10:19.398Z,8.40
2019-03-17T15:12:48.174Z,8.40
2019-03-17T15:15:18.511Z,8.60
2019-03-17T15:17:47.307Z,8.50
2019-03-17T15:20:26.654Z,8.40
2019-03-17T15:22:55.375Z,8.00
2019-03-17T15:25:23.837Z,7.80
2019-03-17T15:27:52.375Z,7.40
2019-03-17T15:30:23.629Z,6.40
2019-03-17T15:32:52.114Z,5.70
2019-03-17T15:35:20.643Z,5.30
2019-03-17T15:37:49.432Z,5.00
2019-03-17T15:40:22.307Z,4.70
2019-03-17T15:42:50.854Z,4.70
2019-03-17T15:45:24.165Z,4.90
2019-03-17T15:47:53.037Z,4.90
2019-03-17T15:50:23.482Z,4.70
2019-03-17T15:52:51.955Z,4.80
2019-03-17T15:55:20.479Z,5.00
2019-03-17T15:57:48.963Z,5.20
2019-03-17T16:00:25.437Z,5.20
2019-03-17T16:02:50.026Z,5.30
2019-03-17T16:05:18.779Z,5.50
2019-03-17T16:07:47.238Z,5.70
2019-03-17T16:10:23.527Z,5.80
2019-03-17T16:12:51.998Z,5.50
2019-03-17T16:15:20.458Z,5.20
2019-03-17T16:17:49.107Z,4.90
2019-03-17T16:20:23.897Z,4.60
2019-03-17T16:22:52.549Z,4.40
2019-03-17T16:25:22.511Z,4.20
2019-03-17T16:27:50.971Z,4.00
2019-03-17T16:30:23.454Z,3.90
2019-03-17T16:32:51.977Z,3.80
2019-03-17T16:35:20.406Z,3.70
2019-03-17T16:37:48.847Z,3.50
2019-03-17T16:40:24.288Z,3.10
2019-03-17T16:42:54.043Z,2.80
2019-03-17T16:45:22.973Z,2.60
2019-03-17T16:47:51.425Z,2.30
2019-03-17T16:50:24.419Z,2.20
2019-03-17T16:52:52.903Z,2.10
2019-03-17T16:55:21.407Z,2.10
2019-03-17T16:57:49.878Z,2.10
2019-03-17T17:00:24.278Z,2.10
2019-03-17T17:02:53.084Z,2.00
2019-03-17T17:05:26.301Z,2.00
2019-03-17T17:07:54.855Z,2.00
2019-03-17T17:10:24.631Z,2.00
2019-03-17T17:12:53.131Z,2.10
2019-03-17T17:15:28.255Z,2.10
2019-03-17T17:17:56.810Z,2.20
2019-03-17T17:20:33.247Z,2.20
2019-03-17T17:23:01.789Z,2.20
2019-03-17T17:25:30.254Z,2.20
2019-03-17T17:27:58.778Z,2.20
2019-03-17T17:30:27.306Z,2.30
2019-03-17T17:32:55.800Z,2.30
2019-03-17T17:35:24.494Z,2.30
2019-03-17T17:37:52.942Z,2.30
2019-03-17T17:40:25.148Z,2.30
2019-03-17T17:42:53.602Z,2.30
2019-03-17T17:45:25.206Z,2.30
2019-03-17T17:47:53.729Z,2.20
2019-03-17T17:50:23.784Z,2.10
2019-03-17T17:52:52.232Z,2.10
2019-03-17T17:55:20.754Z,2.10
2019-03-17T17:57:49.189Z,1.90
2019-03-17T18:00:23.376Z,1.90
2019-03-17T18:02:51.843Z,1.90
2019-03-17T18:05:20.370Z,1.80
2019-03-17T18:07:48.834Z,1.70
2019-03-17T18:10:20.167Z,1.60
2019-03-17T18:12:48.603Z,1.60
2019-03-17T18:15:19.899Z,1.70
2019-03-17T18:17:48.344Z,1.60
2019-03-17T18:20:16.842Z,1.60
2019-03-17T18:22:45.427Z,1.60
2019-03-17T18:25:15.231Z,1.50
2019-03-17T18:27:43.706Z,1.50
2019-03-17T18:30:16.843Z,1.50
2019-03-17T18:32:45.299Z,1.50
2019-03-17T18:35:13.834Z,1.50
2019-03-17T18:37:42.361Z,1.50
2019-03-17T18:40:17.502Z,1.60
2019-03-17T18:42:46.060Z,1.60
2019-03-17T18:45:22.770Z,1.60
2019-03-17T18:47:51.238Z,1.70
2019-03-17T18:50:21.081Z,1.70
2019-03-17T18:52:49.728Z,1.70
2019-03-17T18:55:18.560Z,1.80
2019-03-17T18:57:47.138Z,1.70
2019-03-17T19:00:17.633Z,1.60
2019-03-17T19:02:46.234Z,1.50
2019-03-17T19:05:15.686Z,1.40
2019-03-17T19:07:44.150Z,1.40
2019-03-17T19:10:17.619Z,1.40
2019-03-17T19:12:46.518Z,1.30
2019-03-17T19:15:19.140Z,1.20
2019-03-17T19:17:47.595Z,1.10
2019-03-17T19:20:20.730Z,1.00
2019-03-17T19:22:49.183Z,0.90
2019-03-17T19:25:21.330Z,0.90
2019-03-17T19:27:49.789Z,0.90
2019-03-17T19:30:19.304Z,0.90
2019-03-17T19:32:48.064Z,1.00
2019-03-17T19:35:16.597Z,1.00
2019-03-17T19:37:45.068Z,1.10
2019-03-17T19:40:18.099Z,1.20
2019-03-17T19:42:58.096Z,1.20
2019-03-17T19:45:16.721Z,1.10
2019-03-17T19:47:45.166Z,1.10
2019-03-17T19:50:18.086Z,1.00
2019-03-17T19:52:46.546Z,1.00
2019-03-17T19:55:15.059Z,1.00
2019-03-17T19:57:43.624Z,1.00
2019-03-17T20:00:14.288Z,1.00
2019-03-17T20:02:42.990Z,1.00
2019-03-17T20:05:11.503Z,0.90
2019-03-17T20:07:39.949Z,0.80
2019-03-17T20:10:14.073Z,0.70
2019-03-17T20:12:42.556Z,0.70
2019-03-17T20:15:11.007Z,0.60
2019-03-17T20:17:39.436Z,0.60
2019-03-17T20:20:10.941Z,0.60
2019-03-17T20:22:39.375Z,0.60
2019-03-17T20:25:08.277Z,0.60
2019-03-17T20:27:36.792Z,0.50
2019-03-17T20:30:11.668Z,0.50
2019-03-17T20:32:40.128Z,0.40
2019-03-17T20:35:10.607Z,0.30
2019-03-17T20:37:39.135Z,0.30
2019-03-17T20:40:18.675Z,0.30
2019-03-17T20:42:47.164Z,0.20
2019-03-17T20:45:16.181Z,0.30
2019-03-17T20:47:44.742Z,0.30
2019-03-17T20:50:19.326Z,0.30
2019-03-17T20:52:47.820Z,0.30
2019-03-17T20:55:16.297Z,0.20
2019-03-17T20:57:44.759Z,0.10
2019-03-17T21:00:17.676Z,0.10
2019-03-17T21:02:46.133Z,0.20
2019-03-17T21:05:14.651Z,0.10
2019-03-17T21:07:43.266Z,0.10
2019-03-17T21:10:12.967Z,0.10
2019-03-17T21:12:41.426Z,0.10
2019-03-17T21:15:12.014Z,0.10
2019-03-17T21:17:40.489Z,0.20
2019-03-17T21:20:12.270Z,0.20
2019-03-17T21:22:40.780Z,0.20
2019-03-17T21:25:09.853Z,0.30
2019-03-17T21:27:38.311Z,0.30
2019-03-17T21:30:23.875Z,0.30
2019-03-17T21:32:52.397Z,0.30
2019-03-17T21:35:20.839Z,0.30
2019-03-17T21:37:49.294Z,0.30
2019-03-17T21:40:17.757Z,0.30
2019-03-17T21:42:46.349Z,0.30
2019-03-17T21:45:15.004Z,0.30
2019-03-17T21:47:43.450Z,0.20
2019-03-17T21:50:17.477Z,0.20
2019-03-17T21:52:45.923Z,0.20
2019-03-17T21:55:14.557Z,0.20
2019-03-17T21:57:43.002Z,0.20
2019-03-17T22:00:14.039Z,0.20
2019-03-17T22:02:42.525Z,0.20
2019-03-17T22:05:12.161Z,0.20
2019-03-17T22:07:49.358Z,0.10
2019-03-17T22:10:13.529Z,0.10
2019-03-17T22:12:41.978Z,0.00
2019-03-17T22:15:15.586Z,0.00
2019-03-17T22:17:44.295Z,0.00
2019-03-17T22:20:14.263Z,0.00
2019-03-17T22:22:42.715Z,0.00
2019-03-17T22:25:13.259Z,0.00
2019-03-17T22:27:41.690Z,0.00
2019-03-17T22:30:13.148Z,0.00
2019-03-17T22:32:41.618Z,0.00
2019-03-17T22:35:10.498Z,0.00
2019-03-17T22:37:38.959Z,0.00
2019-03-17T22:40:14.893Z,0.00
2019-03-17T22:42:43.417Z,0.00
2019-03-17T22:45:13.191Z,0.00
2019-03-17T22:47:41.624Z,-0.10
2019-03-17T22:50:12.788Z,-0.10
2019-03-17T22:52:41.240Z,-0.10
2019-03-17T22:55:11.021Z,-0.20
2019-03-17T22:57:39.471Z,-0.20
2019-03-17T23:00:26.090Z,-0.20
2019-03-17T23:02:54.631Z,-0.20
2019-03-17T23:05:23.182Z,-0.10
2019-03-17T23:07:51.674Z,-0.20
2019-03-17T23:10:20.164Z,-0.10
2019-03-17T23:12:48.694Z,-0.20
2019-03-17T23:15:17.214Z,-0.20
2019-03-17T23:17:45.658Z,-0.20
2019-03-17T23:20:15.641Z,-0.20
2019-03-17T23:22:44.123Z,-0.20
2019-03-17T23:25:13.018Z,-0.10
2019-03-17T23:27:41.479Z,0.00
2019-03-17T23:30:17.758Z,-0.10
2019-03-17T23:32:48.984Z,0.00
2019-03-17T23:35:17.551Z,0.00
2019-03-17T23:37:46.091Z,0.00
2019-03-17T23:40:16.624Z,0.00
2019-03-17T23:42:45.109Z,0.00
2019-03-17T23:45:13.648Z,0.00
2019-03-17T23:47:42.242Z,0.00
2019-03-17T23:50:12.696Z,0.00
2019-03-17T23:52:41.240Z,0.00
2019-03-17T23:55:12.181Z,0.00
2019-03-17T23:57:40.624Z,0.00
